sensor_id;sensor_type;location;lat;lon;timestamp;P1;durP1;ratioP1;P2;durP2;ratioP2
4420;SDS011;11824;51.178;13.546;2023-07-20T00:02:12;6.77;;;4.50;;
4420;SDS011;11824;51.178;13.546;2023-07-20T00:04:39;6.70;;;3.93;;
4420;SDS011;11824;51.178;13.546;2023-07-20T00:07:07;7.83;;;5.77;;
4420;SDS011;11824;51.178;13.546;2023-07-20T00:09:34;33.63;;;17.93;;
4420;SDS011;11824;51.178;13.546;2023-07-20T00:12:02;6.20;;;4.60;;
4420;SDS011;11824;51.178;13.546;2023-07-20T00:14:30;7.97;;;4.77;;
4420;SDS011;11824;51.178;13.546;2023-07-20T00:16:57;11.03;;;4.43;;
4420;SDS011;11824;51.178;13.546;2023-07-20T00:19:25;5.40;;;4.90;;
4420;SDS011;11824;51.178;13.546;2023-07-20T00:21:54;5.67;;;4.27;;
4420;SDS011;11824;51.178;13.546;2023-07-20T00:24:21;8.00;;;5.20;;
4420;SDS011;11824;51.178;13.546;2023-07-20T00:26:49;6.73;;;5.07;;
4420;SDS011;11824;51.178;13.546;2023-07-20T00:29:17;7.00;;;5.17;;
4420;SDS011;11824;51.178;13.546;2023-07-20T00:31:45;4.90;;;4.50;;
4420;SDS011;11824;51.178;13.546;2023-07-20T00:34:13;5.27;;;4.57;;
4420;SDS011;11824;51.178;13.546;2023-07-20T00:36:41;9.17;;;5.20;;
4420;SDS011;11824;51.178;13.546;2023-07-20T00:39:08;13.07;;;4.80;;
4420;SDS011;11824;51.178;13.546;2023-07-20T00:41:35;6.80;;;4.90;;
4420;SDS011;11824;51.178;13.546;2023-07-20T00:44:04;11.00;;;4.77;;
4420;SDS011;11824;51.178;13.546;2023-07-20T00:46:33;9.90;;;4.70;;
4420;SDS011;11824;51.178;13.546;2023-07-20T00:49:01;4.67;;;3.93;;
4420;SDS011;11824;51.178;13.546;2023-07-20T00:51:29;4.30;;;3.80;;
4420;SDS011;11824;51.178;13.546;2023-07-20T00:53:56;6.17;;;4.53;;
4420;SDS011;11824;51.178;13.546;2023-07-20T00:56:24;5.17;;;4.63;;
4420;SDS011;11824;51.178;13.546;2023-07-20T00:58:52;4.80;;;3.90;;
4420;SDS011;11824;51.178;13.546;2023-07-20T01:01:19;7.73;;;4.07;;
4420;SDS011;11824;51.178;13.546;2023-07-20T01:03:48;5.17;;;4.20;;
4420;SDS011;11824;51.178;13.546;2023-07-20T01:06:20;4.53;;;4.13;;
4420;SDS011;11824;51.178;13.546;2023-07-20T01:08:57;9.23;;;4.73;;
4420;SDS011;11824;51.178;13.546;2023-07-20T01:11:36;3.50;;;3.20;;
4420;SDS011;11824;51.178;13.546;2023-07-20T01:14:09;6.77;;;3.90;;
4420;SDS011;11824;51.178;13.546;2023-07-20T01:16:37;3.30;;;2.63;;
4420;SDS011;11824;51.178;13.546;2023-07-20T01:19:06;5.70;;;3.07;;
4420;SDS011;11824;51.178;13.546;2023-07-20T01:21:34;5.03;;;2.60;;
4420;SDS011;11824;51.178;13.546;2023-07-20T01:24:17;4.77;;;2.93;;
4420;SDS011;11824;51.178;13.546;2023-07-20T01:27:11;4.27;;;3.07;;
4420;SDS011;11824;51.178;13.546;2023-07-20T01:32:56;7.20;;;2.93;;
4420;SDS011;11824;51.178;13.546;2023-07-20T01:35:26;7.13;;;2.93;;
4420;SDS011;11824;51.178;13.546;2023-07-20T01:37:56;6.17;;;3.10;;
4420;SDS011;11824;51.178;13.546;2023-07-20T01:40:25;3.80;;;3.10;;
4420;SDS011;11824;51.178;13.546;2023-07-20T01:42:53;10.57;;;2.93;;
4420;SDS011;11824;51.178;13.546;2023-07-20T01:45:20;7.90;;;2.90;;
4420;SDS011;11824;51.178;13.546;2023-07-20T01:47:48;4.30;;;3.20;;
4420;SDS011;11824;51.178;13.546;2023-07-20T01:50:16;4.43;;;3.80;;
4420;SDS011;11824;51.178;13.546;2023-07-20T01:52:44;6.57;;;3.50;;
4420;SDS011;11824;51.178;13.546;2023-07-20T01:55:11;5.00;;;4.07;;
4420;SDS011;11824;51.178;13.546;2023-07-20T01:57:38;6.80;;;3.60;;
4420;SDS011;11824;51.178;13.546;2023-07-20T02:00:06;10.27;;;3.97;;
4420;SDS011;11824;51.178;13.546;2023-07-20T02:02:35;6.23;;;3.67;;
4420;SDS011;11824;51.178;13.546;2023-07-20T02:05:03;12.50;;;3.87;;
4420;SDS011;11824;51.178;13.546;2023-07-20T02:07:31;6.00;;;3.70;;
4420;SDS011;11824;51.178;13.546;2023-07-20T02:09:59;4.37;;;3.30;;
4420;SDS011;11824;51.178;13.546;2023-07-20T02:12:26;5.50;;;3.60;;
4420;SDS011;11824;51.178;13.546;2023-07-20T02:14:54;11.07;;;3.60;;
4420;SDS011;11824;51.178;13.546;2023-07-20T02:17:21;11.93;;;5.10;;
4420;SDS011;11824;51.178;13.546;2023-07-20T02:19:50;4.13;;;3.73;;
4420;SDS011;11824;51.178;13.546;2023-07-20T02:22:18;6.00;;;4.80;;
4420;SDS011;11824;51.178;13.546;2023-07-20T02:24:47;8.33;;;4.63;;
4420;SDS011;11824;51.178;13.546;2023-07-20T02:27:14;20.63;;;4.80;;
4420;SDS011;11824;51.178;13.546;2023-07-20T02:29:42;11.63;;;4.37;;
4420;SDS011;11824;51.178;13.546;2023-07-20T02:32:09;6.73;;;4.50;;
4420;SDS011;11824;51.178;13.546;2023-07-20T02:34:38;8.27;;;5.20;;
4420;SDS011;11824;51.178;13.546;2023-07-20T02:37:16;14.13;;;6.23;;
4420;SDS011;11824;51.178;13.546;2023-07-20T02:39:43;11.07;;;6.20;;
4420;SDS011;11824;51.178;13.546;2023-07-20T02:42:11;14.33;;;5.23;;
4420;SDS011;11824;51.178;13.546;2023-07-20T02:44:39;8.60;;;5.80;;
4420;SDS011;11824;51.178;13.546;2023-07-20T02:47:07;9.67;;;5.20;;
4420;SDS011;11824;51.178;13.546;2023-07-20T02:49:34;8.40;;;5.90;;
4420;SDS011;11824;51.178;13.546;2023-07-20T02:52:02;12.73;;;6.90;;
4420;SDS011;11824;51.178;13.546;2023-07-20T02:54:30;24.43;;;6.60;;
4420;SDS011;11824;51.178;13.546;2023-07-20T02:56:57;8.90;;;7.20;;
4420;SDS011;11824;51.178;13.546;2023-07-20T02:59:25;13.43;;;7.93;;
4420;SDS011;11824;51.178;13.546;2023-07-20T03:01:52;12.10;;;7.63;;
4420;SDS011;11824;51.178;13.546;2023-07-20T03:04:21;14.50;;;7.10;;
4420;SDS011;11824;51.178;13.546;2023-07-20T03:06:49;12.93;;;7.80;;
4420;SDS011;11824;51.178;13.546;2023-07-20T03:09:16;15.80;;;8.17;;
4420;SDS011;11824;51.178;13.546;2023-07-20T03:11:43;15.33;;;8.33;;
4420;SDS011;11824;51.178;13.546;2023-07-20T03:14:11;10.30;;;8.10;;
4420;SDS011;11824;51.178;13.546;2023-07-20T03:16:39;14.97;;;8.53;;
4420;SDS011;11824;51.178;13.546;2023-07-20T03:19:07;15.00;;;9.47;;
4420;SDS011;11824;51.178;13.546;2023-07-20T03:21:34;17.50;;;7.27;;
4420;SDS011;11824;51.178;13.546;2023-07-20T03:24:06;21.53;;;8.80;;
4420;SDS011;11824;51.178;13.546;2023-07-20T03:26:34;15.07;;;8.43;;
4420;SDS011;11824;51.178;13.546;2023-07-20T03:29:01;15.93;;;8.37;;
4420;SDS011;11824;51.178;13.546;2023-07-20T03:31:35;11.33;;;8.70;;
4420;SDS011;11824;51.178;13.546;2023-07-20T03:34:03;12.23;;;8.50;;
4420;SDS011;11824;51.178;13.546;2023-07-20T03:36:31;9.70;;;8.73;;
4420;SDS011;11824;51.178;13.546;2023-07-20T03:38:59;18.97;;;8.83;;
4420;SDS011;11824;51.178;13.546;2023-07-20T03:41:26;31.07;;;9.27;;
4420;SDS011;11824;51.178;13.546;2023-07-20T03:43:54;17.67;;;9.17;;
4420;SDS011;11824;51.178;13.546;2023-07-20T03:46:21;21.47;;;8.70;;
4420;SDS011;11824;51.178;13.546;2023-07-20T03:48:49;22.60;;;9.37;;
4420;SDS011;11824;51.178;13.546;2023-07-20T03:51:17;14.43;;;7.50;;
4420;SDS011;11824;51.178;13.546;2023-07-20T03:53:44;16.37;;;7.73;;
4420;SDS011;11824;51.178;13.546;2023-07-20T03:56:12;12.30;;;7.43;;
4420;SDS011;11824;51.178;13.546;2023-07-20T03:58:39;18.40;;;9.27;;
4420;SDS011;11824;51.178;13.546;2023-07-20T04:01:06;20.33;;;8.43;;
4420;SDS011;11824;51.178;13.546;2023-07-20T04:03:35;17.30;;;8.90;;
4420;SDS011;11824;51.178;13.546;2023-07-20T04:06:02;15.47;;;8.47;;
4420;SDS011;11824;51.178;13.546;2023-07-20T04:08:30;18.30;;;8.20;;
4420;SDS011;11824;51.178;13.546;2023-07-20T04:10:58;16.33;;;8.97;;
4420;SDS011;11824;51.178;13.546;2023-07-20T04:13:28;13.53;;;7.67;;
4420;SDS011;11824;51.178;13.546;2023-07-20T04:15:58;16.33;;;8.03;;
4420;SDS011;11824;51.178;13.546;2023-07-20T04:18:26;22.23;;;7.67;;
4420;SDS011;11824;51.178;13.546;2023-07-20T04:20:53;22.47;;;8.23;;
4420;SDS011;11824;51.178;13.546;2023-07-20T04:23:21;18.77;;;8.10;;
4420;SDS011;11824;51.178;13.546;2023-07-20T04:25:49;13.37;;;8.33;;
4420;SDS011;11824;51.178;13.546;2023-07-20T04:28:17;15.83;;;8.43;;
4420;SDS011;11824;51.178;13.546;2023-07-20T04:30:48;21.90;;;8.63;;
4420;SDS011;11824;51.178;13.546;2023-07-20T04:33:16;12.57;;;7.80;;
4420;SDS011;11824;51.178;13.546;2023-07-20T04:35:44;15.57;;;8.43;;
4420;SDS011;11824;51.178;13.546;2023-07-20T04:38:13;17.73;;;7.50;;
4420;SDS011;11824;51.178;13.546;2023-07-20T04:40:43;16.27;;;7.50;;
4420;SDS011;11824;51.178;13.546;2023-07-20T04:43:12;24.00;;;8.70;;
4420;SDS011;11824;51.178;13.546;2023-07-20T04:45:39;14.67;;;8.00;;
4420;SDS011;11824;51.178;13.546;2023-07-20T04:48:08;15.30;;;8.13;;
4420;SDS011;11824;51.178;13.546;2023-07-20T04:50:37;15.50;;;7.80;;
4420;SDS011;11824;51.178;13.546;2023-07-20T04:53:06;22.23;;;6.87;;
4420;SDS011;11824;51.178;13.546;2023-07-20T04:55:35;24.13;;;7.50;;
4420;SDS011;11824;51.178;13.546;2023-07-20T04:58:03;20.40;;;7.60;;
4420;SDS011;11824;51.178;13.546;2023-07-20T05:00:32;12.83;;;6.63;;
4420;SDS011;11824;51.178;13.546;2023-07-20T05:03:00;19.33;;;6.97;;
4420;SDS011;11824;51.178;13.546;2023-07-20T05:05:28;12.30;;;7.77;;
4420;SDS011;11824;51.178;13.546;2023-07-20T05:07:55;17.73;;;8.13;;
4420;SDS011;11824;51.178;13.546;2023-07-20T05:10:23;13.13;;;6.47;;
4420;SDS011;11824;51.178;13.546;2023-07-20T05:12:50;15.40;;;6.60;;
4420;SDS011;11824;51.178;13.546;2023-07-20T05:15:18;15.13;;;8.13;;
4420;SDS011;11824;51.178;13.546;2023-07-20T05:17:46;22.40;;;7.80;;
4420;SDS011;11824;51.178;13.546;2023-07-20T05:20:14;25.23;;;6.80;;
4420;SDS011;11824;51.178;13.546;2023-07-20T05:22:42;15.93;;;6.80;;
4420;SDS011;11824;51.178;13.546;2023-07-20T05:25:10;13.13;;;6.47;;
4420;SDS011;11824;51.178;13.546;2023-07-20T05:27:38;14.10;;;6.60;;
4420;SDS011;11824;51.178;13.546;2023-07-20T05:30:06;10.77;;;6.97;;
4420;SDS011;11824;51.178;13.546;2023-07-20T05:32:34;20.60;;;7.23;;
4420;SDS011;11824;51.178;13.546;2023-07-20T05:35:03;17.23;;;7.50;;
4420;SDS011;11824;51.178;13.546;2023-07-20T05:37:31;12.80;;;6.03;;
4420;SDS011;11824;51.178;13.546;2023-07-20T05:39:58;11.80;;;6.63;;
4420;SDS011;11824;51.178;13.546;2023-07-20T05:42:26;11.60;;;6.40;;
4420;SDS011;11824;51.178;13.546;2023-07-20T05:44:53;10.20;;;6.13;;
4420;SDS011;11824;51.178;13.546;2023-07-20T05:47:21;15.20;;;6.10;;
4420;SDS011;11824;51.178;13.546;2023-07-20T05:49:48;7.87;;;4.93;;
4420;SDS011;11824;51.178;13.546;2023-07-20T05:52:16;8.03;;;4.10;;
4420;SDS011;11824;51.178;13.546;2023-07-20T05:54:44;14.60;;;5.20;;
4420;SDS011;11824;51.178;13.546;2023-07-20T05:57:11;13.20;;;5.00;;
4420;SDS011;11824;51.178;13.546;2023-07-20T05:59:39;7.27;;;5.50;;
4420;SDS011;11824;51.178;13.546;2023-07-20T06:02:09;11.50;;;5.97;;
4420;SDS011;11824;51.178;13.546;2023-07-20T06:04:38;6.33;;;5.10;;
4420;SDS011;11824;51.178;13.546;2023-07-20T06:07:06;8.00;;;5.57;;
4420;SDS011;11824;51.178;13.546;2023-07-20T06:09:34;9.77;;;5.70;;
4420;SDS011;11824;51.178;13.546;2023-07-20T06:12:02;9.10;;;5.70;;
4420;SDS011;11824;51.178;13.546;2023-07-20T06:14:30;9.13;;;6.77;;
4420;SDS011;11824;51.178;13.546;2023-07-20T06:16:57;18.63;;;6.43;;
4420;SDS011;11824;51.178;13.546;2023-07-20T06:19:25;9.20;;;7.10;;
4420;SDS011;11824;51.178;13.546;2023-07-20T06:21:52;12.90;;;7.50;;
4420;SDS011;11824;51.178;13.546;2023-07-20T06:24:20;7.37;;;5.40;;
4420;SDS011;11824;51.178;13.546;2023-07-20T06:26:48;9.67;;;6.07;;
4420;SDS011;11824;51.178;13.546;2023-07-20T06:29:15;13.13;;;6.87;;
4420;SDS011;11824;51.178;13.546;2023-07-20T06:31:43;12.13;;;6.60;;
4420;SDS011;11824;51.178;13.546;2023-07-20T06:34:10;8.40;;;4.77;;
4420;SDS011;11824;51.178;13.546;2023-07-20T06:36:38;7.10;;;5.47;;
4420;SDS011;11824;51.178;13.546;2023-07-20T06:39:05;4.20;;;3.90;;
4420;SDS011;11824;51.178;13.546;2023-07-20T06:41:35;6.10;;;5.10;;
4420;SDS011;11824;51.178;13.546;2023-07-20T06:44:06;7.13;;;5.30;;
4420;SDS011;11824;51.178;13.546;2023-07-20T06:46:33;17.90;;;6.20;;
4420;SDS011;11824;51.178;13.546;2023-07-20T06:49:01;9.97;;;5.50;;
4420;SDS011;11824;51.178;13.546;2023-07-20T06:51:31;11.33;;;4.87;;
4420;SDS011;11824;51.178;13.546;2023-07-20T06:53:58;5.50;;;5.00;;
4420;SDS011;11824;51.178;13.546;2023-07-20T06:56:27;7.23;;;4.67;;
4420;SDS011;11824;51.178;13.546;2023-07-20T06:58:57;13.60;;;5.30;;
4420;SDS011;11824;51.178;13.546;2023-07-20T07:01:25;10.83;;;5.80;;
4420;SDS011;11824;51.178;13.546;2023-07-20T07:03:53;7.67;;;6.13;;
4420;SDS011;11824;51.178;13.546;2023-07-20T07:06:21;7.60;;;6.43;;
4420;SDS011;11824;51.178;13.546;2023-07-20T07:08:50;7.23;;;6.53;;
4420;SDS011;11824;51.178;13.546;2023-07-20T07:11:18;12.03;;;6.20;;
4420;SDS011;11824;51.178;13.546;2023-07-20T07:13:46;18.13;;;7.13;;
4420;SDS011;11824;51.178;13.546;2023-07-20T07:16:16;7.37;;;6.70;;
4420;SDS011;11824;51.178;13.546;2023-07-20T07:18:47;9.00;;;7.23;;
4420;SDS011;11824;51.178;13.546;2023-07-20T07:21:16;9.53;;;7.20;;
4420;SDS011;11824;51.178;13.546;2023-07-20T07:23:43;15.60;;;7.60;;
4420;SDS011;11824;51.178;13.546;2023-07-20T07:26:11;11.47;;;7.97;;
4420;SDS011;11824;51.178;13.546;2023-07-20T07:28:38;9.53;;;8.43;;
4420;SDS011;11824;51.178;13.546;2023-07-20T07:31:06;13.50;;;9.47;;
4420;SDS011;11824;51.178;13.546;2023-07-20T07:33:33;11.20;;;8.40;;
4420;SDS011;11824;51.178;13.546;2023-07-20T07:36:02;12.63;;;7.90;;
4420;SDS011;11824;51.178;13.546;2023-07-20T07:38:29;11.80;;;9.30;;
4420;SDS011;11824;51.178;13.546;2023-07-20T07:41:16;11.57;;;10.07;;
4420;SDS011;11824;51.178;13.546;2023-07-20T07:43:44;9.37;;;8.43;;
4420;SDS011;11824;51.178;13.546;2023-07-20T07:46:11;12.63;;;9.47;;
4420;SDS011;11824;51.178;13.546;2023-07-20T07:48:39;16.77;;;10.87;;
4420;SDS011;11824;51.178;13.546;2023-07-20T07:51:08;10.80;;;9.80;;
4420;SDS011;11824;51.178;13.546;2023-07-20T07:53:36;15.70;;;11.13;;
4420;SDS011;11824;51.178;13.546;2023-07-20T07:56:06;13.63;;;10.77;;
4420;SDS011;11824;51.178;13.546;2023-07-20T07:58:34;14.10;;;11.47;;
4420;SDS011;11824;51.178;13.546;2023-07-20T08:01:04;14.73;;;11.10;;
4420;SDS011;11824;51.178;13.546;2023-07-20T08:03:34;17.73;;;9.87;;
4420;SDS011;11824;51.178;13.546;2023-07-20T08:06:02;10.93;;;9.93;;
4420;SDS011;11824;51.178;13.546;2023-07-20T08:08:33;11.43;;;10.43;;
4420;SDS011;11824;51.178;13.546;2023-07-20T08:11:02;12.07;;;7.70;;
4420;SDS011;11824;51.178;13.546;2023-07-20T08:13:33;10.67;;;9.33;;
4420;SDS011;11824;51.178;13.546;2023-07-20T08:16:00;13.43;;;9.07;;
4420;SDS011;11824;51.178;13.546;2023-07-20T08:18:28;15.67;;;9.10;;
4420;SDS011;11824;51.178;13.546;2023-07-20T08:20:56;9.40;;;8.40;;
4420;SDS011;11824;51.178;13.546;2023-07-20T08:23:23;8.30;;;7.40;;
4420;SDS011;11824;51.178;13.546;2023-07-20T08:25:53;12.00;;;7.67;;
4420;SDS011;11824;51.178;13.546;2023-07-20T08:28:21;11.17;;;8.60;;
4420;SDS011;11824;51.178;13.546;2023-07-20T08:30:48;9.13;;;7.63;;
4420;SDS011;11824;51.178;13.546;2023-07-20T08:33:17;13.10;;;7.10;;
4420;SDS011;11824;51.178;13.546;2023-07-20T08:35:45;9.10;;;7.03;;
4420;SDS011;11824;51.178;13.546;2023-07-20T08:38:13;11.23;;;6.67;;
4420;SDS011;11824;51.178;13.546;2023-07-20T08:40:41;9.63;;;7.13;;
4420;SDS011;11824;51.178;13.546;2023-07-20T08:43:10;9.67;;;5.17;;
4420;SDS011;11824;51.178;13.546;2023-07-20T08:45:39;5.67;;;4.13;;
4420;SDS011;11824;51.178;13.546;2023-07-20T08:48:10;7.13;;;5.07;;
4420;SDS011;11824;51.178;13.546;2023-07-20T08:50:39;4.83;;;4.27;;
4420;SDS011;11824;51.178;13.546;2023-07-20T08:53:07;4.23;;;3.83;;
4420;SDS011;11824;51.178;13.546;2023-07-20T08:55:36;6.30;;;4.20;;
4420;SDS011;11824;51.178;13.546;2023-07-20T08:58:05;6.53;;;4.07;;
4420;SDS011;11824;51.178;13.546;2023-07-20T09:00:37;4.77;;;4.00;;
4420;SDS011;11824;51.178;13.546;2023-07-20T09:03:06;5.03;;;4.50;;
4420;SDS011;11824;51.178;13.546;2023-07-20T09:05:34;4.53;;;3.63;;
4420;SDS011;11824;51.178;13.546;2023-07-20T09:08:02;4.73;;;4.30;;
4420;SDS011;11824;51.178;13.546;2023-07-20T09:10:30;4.70;;;4.00;;
4420;SDS011;11824;51.178;13.546;2023-07-20T09:12:58;6.40;;;3.90;;
4420;SDS011;11824;51.178;13.546;2023-07-20T09:15:26;7.30;;;3.80;;
4420;SDS011;11824;51.178;13.546;2023-07-20T09:17:55;6.00;;;3.57;;
4420;SDS011;11824;51.178;13.546;2023-07-20T09:20:27;6.93;;;3.57;;
4420;SDS011;11824;51.178;13.546;2023-07-20T09:22:57;3.67;;;3.20;;
4420;SDS011;11824;51.178;13.546;2023-07-20T09:25:24;5.77;;;4.00;;
4420;SDS011;11824;51.178;13.546;2023-07-20T09:27:56;4.13;;;3.70;;
4420;SDS011;11824;51.178;13.546;2023-07-20T09:30:29;5.17;;;4.70;;
4420;SDS011;11824;51.178;13.546;2023-07-20T09:32:58;4.60;;;4.20;;
4420;SDS011;11824;51.178;13.546;2023-07-20T09:35:26;5.10;;;4.60;;
4420;SDS011;11824;51.178;13.546;2023-07-20T09:38:06;6.73;;;6.00;;
4420;SDS011;11824;51.178;13.546;2023-07-20T09:40:37;10.80;;;7.60;;
4420;SDS011;11824;51.178;13.546;2023-07-20T09:43:08;8.80;;;7.90;;
4420;SDS011;11824;51.178;13.546;2023-07-20T09:45:40;10.97;;;8.20;;
4420;SDS011;11824;51.178;13.546;2023-07-20T09:48:11;12.07;;;8.40;;
4420;SDS011;11824;51.178;13.546;2023-07-20T09:50:41;10.43;;;9.37;;
4420;SDS011;11824;51.178;13.546;2023-07-20T09:53:14;12.97;;;9.40;;
4420;SDS011;11824;51.178;13.546;2023-07-20T09:55:43;10.03;;;9.00;;
4420;SDS011;11824;51.178;13.546;2023-07-20T09:58:12;11.60;;;7.97;;
4420;SDS011;11824;51.178;13.546;2023-07-20T10:00:40;11.70;;;9.20;;
4420;SDS011;11824;51.178;13.546;2023-07-20T10:03:16;9.10;;;8.20;;
4420;SDS011;11824;51.178;13.546;2023-07-20T10:05:47;8.57;;;7.77;;
4420;SDS011;11824;51.178;13.546;2023-07-20T10:08:18;7.63;;;6.93;;
4420;SDS011;11824;51.178;13.546;2023-07-20T10:10:52;9.27;;;8.20;;
4420;SDS011;11824;51.178;13.546;2023-07-20T10:13:21;8.97;;;7.27;;
4420;SDS011;11824;51.178;13.546;2023-07-20T10:15:53;6.07;;;5.47;;
4420;SDS011;11824;51.178;13.546;2023-07-20T10:18:30;9.07;;;5.90;;
4420;SDS011;11824;51.178;13.546;2023-07-20T10:21:04;4.80;;;4.40;;
4420;SDS011;11824;51.178;13.546;2023-07-20T10:23:37;3.40;;;3.20;;
4420;SDS011;11824;51.178;13.546;2023-07-20T10:26:06;4.10;;;3.80;;
4420;SDS011;11824;51.178;13.546;2023-07-20T10:28:34;3.80;;;3.47;;
4420;SDS011;11824;51.178;13.546;2023-07-20T10:31:03;3.50;;;3.20;;
4420;SDS011;11824;51.178;13.546;2023-07-20T10:33:32;9.03;;;3.50;;
4420;SDS011;11824;51.178;13.546;2023-07-20T10:36:01;3.60;;;3.30;;
4420;SDS011;11824;51.178;13.546;2023-07-20T10:38:38;4.53;;;3.87;;
4420;SDS011;11824;51.178;13.546;2023-07-20T10:41:15;5.80;;;3.37;;
4420;SDS011;11824;51.178;13.546;2023-07-20T10:43:46;7.13;;;4.50;;
4420;SDS011;11824;51.178;13.546;2023-07-20T10:46:14;4.73;;;4.33;;
4420;SDS011;11824;51.178;13.546;2023-07-20T10:49:01;4.23;;;3.93;;
4420;SDS011;11824;51.178;13.546;2023-07-20T10:51:30;5.33;;;4.27;;
4420;SDS011;11824;51.178;13.546;2023-07-20T10:54:07;4.17;;;3.87;;
4420;SDS011;11824;51.178;13.546;2023-07-20T10:56:35;4.87;;;4.47;;
4420;SDS011;11824;51.178;13.546;2023-07-20T10:59:17;13.67;;;5.40;;
4420;SDS011;11824;51.178;13.546;2023-07-20T11:01:47;6.60;;;5.00;;
4420;SDS011;11824;51.178;13.546;2023-07-20T11:04:15;5.73;;;5.33;;
4420;SDS011;11824;51.178;13.546;2023-07-20T11:06:45;7.73;;;5.00;;
4420;SDS011;11824;51.178;13.546;2023-07-20T11:09:22;5.93;;;5.43;;
4420;SDS011;11824;51.178;13.546;2023-07-20T11:11:51;5.00;;;4.60;;
4420;SDS011;11824;51.178;13.546;2023-07-20T11:14:39;5.20;;;4.80;;
4420;SDS011;11824;51.178;13.546;2023-07-20T11:17:12;5.70;;;5.20;;
4420;SDS011;11824;51.178;13.546;2023-07-20T11:19:40;5.20;;;4.70;;
4420;SDS011;11824;51.178;13.546;2023-07-20T11:22:11;5.77;;;5.27;;
4420;SDS011;11824;51.178;13.546;2023-07-20T11:24:38;5.80;;;5.30;;
4420;SDS011;11824;51.178;13.546;2023-07-20T11:27:06;6.20;;;5.53;;
4420;SDS011;11824;51.178;13.546;2023-07-20T11:29:34;8.57;;;4.87;;
4420;SDS011;11824;51.178;13.546;2023-07-20T11:32:03;4.63;;;4.23;;
4420;SDS011;11824;51.178;13.546;2023-07-20T11:34:34;6.80;;;5.70;;
4420;SDS011;11824;51.178;13.546;2023-07-20T11:37:01;6.30;;;4.70;;
4420;SDS011;11824;51.178;13.546;2023-07-20T11:39:32;6.03;;;5.30;;
4420;SDS011;11824;51.178;13.546;2023-07-20T11:41:59;5.90;;;5.40;;
4420;SDS011;11824;51.178;13.546;2023-07-20T11:44:27;7.50;;;5.60;;
4420;SDS011;11824;51.178;13.546;2023-07-20T11:47:02;5.27;;;4.77;;
4420;SDS011;11824;51.178;13.546;2023-07-20T11:49:31;8.20;;;6.03;;
4420;SDS011;11824;51.178;13.546;2023-07-20T11:52:03;5.60;;;5.20;;
4420;SDS011;11824;51.178;13.546;2023-07-20T11:54:32;6.00;;;5.30;;
4420;SDS011;11824;51.178;13.546;2023-07-20T11:57:03;6.30;;;5.70;;
4420;SDS011;11824;51.178;13.546;2023-07-20T11:59:31;8.50;;;5.30;;
4420;SDS011;11824;51.178;13.546;2023-07-20T12:01:58;6.47;;;5.97;;
4420;SDS011;11824;51.178;13.546;2023-07-20T12:04:31;8.50;;;6.33;;
4420;SDS011;11824;51.178;13.546;2023-07-20T12:07:00;8.40;;;6.70;;
4420;SDS011;11824;51.178;13.546;2023-07-20T12:09:28;5.97;;;5.47;;
4420;SDS011;11824;51.178;13.546;2023-07-20T12:12:15;5.43;;;4.03;;
4420;SDS011;11824;51.178;13.546;2023-07-20T12:14:44;4.80;;;4.40;;
4420;SDS011;11824;51.178;13.546;2023-07-20T12:17:12;5.93;;;3.77;;
4420;SDS011;11824;51.178;13.546;2023-07-20T12:19:40;3.73;;;3.43;;
4420;SDS011;11824;51.178;13.546;2023-07-20T12:22:08;5.80;;;3.93;;
4420;SDS011;11824;51.178;13.546;2023-07-20T12:24:37;3.67;;;3.37;;
4420;SDS011;11824;51.178;13.546;2023-07-20T12:27:04;3.87;;;3.57;;
4420;SDS011;11824;51.178;13.546;2023-07-20T12:29:32;9.07;;;4.20;;
4420;SDS011;11824;51.178;13.546;2023-07-20T12:32:02;4.83;;;4.50;;
4420;SDS011;11824;51.178;13.546;2023-07-20T12:34:30;3.70;;;3.40;;
4420;SDS011;11824;51.178;13.546;2023-07-20T12:36:57;4.30;;;3.63;;
4420;SDS011;11824;51.178;13.546;2023-07-20T12:39:25;3.67;;;3.00;;
4420;SDS011;11824;51.178;13.546;2023-07-20T12:41:53;4.03;;;3.10;;
4420;SDS011;11824;51.178;13.546;2023-07-20T12:44:20;3.50;;;3.00;;
4420;SDS011;11824;51.178;13.546;2023-07-20T12:46:48;4.40;;;3.30;;
4420;SDS011;11824;51.178;13.546;2023-07-20T12:49:15;6.97;;;3.27;;
4420;SDS011;11824;51.178;13.546;2023-07-20T12:51:42;3.20;;;2.90;;
4420;SDS011;11824;51.178;13.546;2023-07-20T12:54:10;2.17;;;2.07;;
4420;SDS011;11824;51.178;13.546;2023-07-20T12:56:38;5.00;;;2.60;;
4420;SDS011;11824;51.178;13.546;2023-07-20T12:59:08;3.70;;;2.83;;
4420;SDS011;11824;51.178;13.546;2023-07-20T13:01:36;3.07;;;2.40;;
4420;SDS011;11824;51.178;13.546;2023-07-20T13:04:04;3.17;;;2.30;;
4420;SDS011;11824;51.178;13.546;2023-07-20T13:06:34;3.40;;;2.50;;
4420;SDS011;11824;51.178;13.546;2023-07-20T13:09:02;3.03;;;2.23;;
4420;SDS011;11824;51.178;13.546;2023-07-20T13:11:30;6.40;;;2.50;;
4420;SDS011;11824;51.178;13.546;2023-07-20T13:13:58;6.10;;;2.87;;
4420;SDS011;11824;51.178;13.546;2023-07-20T13:16:25;2.80;;;2.50;;
4420;SDS011;11824;51.178;13.546;2023-07-20T13:18:53;2.90;;;2.10;;
4420;SDS011;11824;51.178;13.546;2023-07-20T13:21:21;5.90;;;3.10;;
4420;SDS011;11824;51.178;13.546;2023-07-20T13:23:48;3.10;;;2.80;;
4420;SDS011;11824;51.178;13.546;2023-07-20T13:26:16;2.93;;;2.63;;
4420;SDS011;11824;51.178;13.546;2023-07-20T13:28:43;3.67;;;3.20;;
4420;SDS011;11824;51.178;13.546;2023-07-20T13:31:11;5.80;;;3.50;;
4420;SDS011;11824;51.178;13.546;2023-07-20T13:33:41;3.00;;;2.70;;
4420;SDS011;11824;51.178;13.546;2023-07-20T13:36:08;4.20;;;3.50;;
4420;SDS011;11824;51.178;13.546;2023-07-20T13:38:36;2.67;;;2.40;;
4420;SDS011;11824;51.178;13.546;2023-07-20T13:41:03;3.80;;;2.47;;
4420;SDS011;11824;51.178;13.546;2023-07-20T13:43:30;2.87;;;2.63;;
4420;SDS011;11824;51.178;13.546;2023-07-20T13:45:58;5.20;;;2.93;;
4420;SDS011;11824;51.178;13.546;2023-07-20T13:48:26;2.97;;;2.67;;
4420;SDS011;11824;51.178;13.546;2023-07-20T13:50:54;3.57;;;3.27;;
4420;SDS011;11824;51.178;13.546;2023-07-20T13:53:24;5.10;;;3.60;;
4420;SDS011;11824;51.178;13.546;2023-07-20T13:55:56;3.47;;;3.10;;
4420;SDS011;11824;51.178;13.546;2023-07-20T13:58:26;7.30;;;3.30;;
4420;SDS011;11824;51.178;13.546;2023-07-20T14:00:57;3.77;;;3.47;;
4420;SDS011;11824;51.178;13.546;2023-07-20T14:03:24;5.03;;;3.33;;
4420;SDS011;11824;51.178;13.546;2023-07-20T14:05:52;5.43;;;4.20;;
4420;SDS011;11824;51.178;13.546;2023-07-20T14:08:23;4.20;;;3.80;;
4420;SDS011;11824;51.178;13.546;2023-07-20T14:10:50;5.03;;;3.97;;
4420;SDS011;11824;51.178;13.546;2023-07-20T14:13:21;4.63;;;4.27;;
4420;SDS011;11824;51.178;13.546;2023-07-20T14:16:07;4.97;;;3.90;;
4420;SDS011;11824;51.178;13.546;2023-07-20T14:18:36;12.60;;;4.70;;
4420;SDS011;11824;51.178;13.546;2023-07-20T14:21:03;6.10;;;4.67;;
4420;SDS011;11824;51.178;13.546;2023-07-20T14:23:34;5.23;;;3.73;;
4420;SDS011;11824;51.178;13.546;2023-07-20T14:26:02;4.73;;;3.60;;
4420;SDS011;11824;51.178;13.546;2023-07-20T14:28:30;4.70;;;4.40;;
4420;SDS011;11824;51.178;13.546;2023-07-20T14:30:58;5.70;;;4.17;;
4420;SDS011;11824;51.178;13.546;2023-07-20T14:33:25;3.83;;;3.40;;
4420;SDS011;11824;51.178;13.546;2023-07-20T14:35:56;7.03;;;3.20;;
4420;SDS011;11824;51.178;13.546;2023-07-20T14:38:24;3.97;;;3.67;;
4420;SDS011;11824;51.178;13.546;2023-07-20T14:40:52;2.17;;;1.97;;
4420;SDS011;11824;51.178;13.546;2023-07-20T14:43:21;4.13;;;2.30;;
4420;SDS011;11824;51.178;13.546;2023-07-20T14:45:49;3.60;;;3.30;;
4420;SDS011;11824;51.178;13.546;2023-07-20T14:48:17;3.33;;;3.00;;
4420;SDS011;11824;51.178;13.546;2023-07-20T14:50:44;3.03;;;2.73;;
4420;SDS011;11824;51.178;13.546;2023-07-20T14:53:13;2.33;;;2.00;;
4420;SDS011;11824;51.178;13.546;2023-07-20T14:55:44;6.00;;;1.80;;
4420;SDS011;11824;51.178;13.546;2023-07-20T14:58:11;2.90;;;1.47;;